Time;durP1;ratioP1;P1;durP2;ratioP2;P2;SDS_P1;SDS_P2;PMS_P1;PMS_P2;Temp;Humidity;BMP_temperature;BMP_pressure;BME280_temperature;BME280_humidity;BME280_pressure;Samples;Min_cycle;Max_cycle;Signal;HPM_P1;HPM_P2
2022/08/15 00:00:28;;;;;;;9.27;6.45;;;;;;;24.05;65.75;100179.31;5092097;28;20502;-54
2022/08/15 00:02:58;;;;;;;7.50;5.68;;;;;;;24.07;65.34;100188.00;5091742;28;20048;-67
2022/08/15 00:05:32;;;;;;;8.95;6.18;;;;;;;24.02;66.88;100185.09;5090780;28;20071;-54
2022/08/15 00:08:06;;;;;;;7.32;5.80;;;;;;;23.99;67.02;100176.63;5092025;28;20052;-59
2022/08/15 00:10:57;;;;;;;8.52;6.18;;;;;;;23.94;66.15;100174.53;5096140;28;20048;-56
2022/08/15 00:13:49;;;;;;;8.93;5.78;;;;;;;23.92;65.92;100179.31;5095734;28;20051;-54
2022/08/15 00:16:32;;;;;;;8.07;5.43;;;;;;;23.89;67.01;100180.53;5096054;28;20040;-57
2022/08/15 00:19:04;;;;;;;9.00;6.32;;;;;;;23.81;67.05;100183.38;5095848;28;20450;-67
2022/08/15 00:21:35;;;;;;;;;;;;;;;23.76;66.92;100184.00;5096452;28;20131;-56
2022/08/15 00:24:04;;;;;;;8.40;6.07;;;;;;;23.77;66.59;100172.22;5095675;28;19942;-55
2022/08/15 00:26:56;;;;;;;8.98;6.45;;;;;;;23.79;67.43;100175.53;5095817;28;20094;-66
2022/08/15 00:29:27;;;;;;;8.63;6.38;;;;;;;23.73;66.36;100176.31;5095896;28;20561;-57
2022/08/15 00:32:10;;;;;;;8.23;5.97;;;;;;;23.68;65.88;100177.97;5095580;28;20555;-55
2022/08/15 00:34:59;;;;;;;10.10;6.57;;;;;;;23.63;67.22;100182.09;5095230;28;20457;-66
2022/08/15 00:37:28;;;;;;;8.95;6.32;;;;;;;23.63;67.56;100181.28;5094283;28;20090;-66
2022/08/15 00:39:57;;;;;;;8.60;5.93;;;;;;;23.62;67.37;100175.06;5095489;28;20572;-57
2022/08/15 00:42:27;;;;;;;8.77;5.72;;;;;;;23.60;67.91;100168.22;5095530;28;20052;-58
2022/08/15 00:44:58;;;;;;;9.48;5.97;;;;;;;23.60;67.67;100171.78;5095120;28;20689;-66
2022/08/15 00:47:42;;;;;;;9.75;5.70;;;;;;;23.59;68.52;100163.91;5095313;28;20054;-67
2022/08/15 00:50:14;;;;;;;8.55;6.68;;;;;;;23.54;69.80;100166.38;5095000;28;20538;-67
2022/08/15 00:53:06;;;;;;;7.80;6.03;;;;;;;23.52;69.14;100165.75;5094854;28;20513;-67
2022/08/15 00:55:39;;;;;;;9.15;6.25;;;;;;;23.52;68.84;100163.91;5095110;28;20044;-67
2022/08/15 00:58:10;;;;;;;9.70;6.63;;;;;;;23.51;68.38;100158.75;5094709;28;20075;-67
2022/08/15 01:00:58;;;;;;;9.57;6.50;;;;;;;23.45;68.41;100163.88;5093713;28;20051;-57
2022/08/15 01:03:31;;;;;;;8.98;6.63;;;;;;;23.48;68.46;100165.34;5094924;28;20119;-66
2022/08/15 01:06:21;;;;;;;9.75;6.80;;;;;;;23.46;68.47;100162.84;5095030;28;20105;-66
2022/08/15 01:08:56;;;;;;;8.98;6.47;;;;;;;23.45;68.90;100158.50;5094610;28;20044;-67
2022/08/15 01:11:31;;;;;;;8.75;6.95;;;;;;;23.43;68.60;100160.56;5094824;28;20076;-66
2022/08/15 01:14:06;;;;;;;9.35;6.93;;;;;;;23.43;69.36;100160.56;5094638;28;20052;-57
2022/08/15 01:16:55;;;;;;;11.02;6.72;;;;;;;23.42;69.98;100158.06;5094693;28;20052;-67
2022/08/15 01:19:25;;;;;;;10.40;7.32;;;;;;;23.45;70.03;100155.81;5094746;28;20068;-57
2022/08/15 01:22:23;;;;;;;8.43;6.55;;;;;;;23.38;70.39;100151.47;5094563;28;20101;-56
2022/08/15 01:24:58;;;;;;;10.00;7.05;;;;;;;23.39;70.61;100153.94;5091705;28;20088;-66
2022/08/15 01:27:51;;;;;;;9.38;6.40;;;;;;;23.35;71.01;100152.69;5094490;28;20403;-56
2022/08/15 01:30:25;;;;;;;9.40;7.32;;;;;;;23.34;71.03;100153.72;5093102;28;20056;-66
2022/08/15 01:33:14;;;;;;;10.00;6.78;;;;;;;23.34;71.07;100150.19;5094438;28;20048;-56
2022/08/15 01:35:46;;;;;;;9.68;6.93;;;;;;;23.28;71.56;100146.47;5092791;28;20544;-68
2022/08/15 01:38:25;;;;;;;8.88;6.75;;;;;;;23.21;71.75;100137.59;5094276;28;20491;-67
2022/08/15 01:41:21;;;;;;;8.30;6.85;;;;;;;23.18;71.36;100137.97;5094406;28;20032;-67
2022/08/15 01:44:11;;;;;;;9.63;7.53;;;;;;;23.18;72.69;100146.84;5094073;28;20048;-57
2022/08/15 01:47:06;;;;;;;11.00;6.65;;;;;;;23.09;72.62;100137.28;5094011;28;20048;-66
2022/08/15 01:49:49;;;;;;;8.93;6.85;;;;;;;23.12;72.18;100134.19;5093929;28;20036;-66
2022/08/15 01:52:33;;;;;;;8.88;7.10;;;;;;;23.06;72.52;100127.78;5094051;28;20449;-56
2022/08/15 01:55:27;;;;;;;9.52;7.00;;;;;;;22.97;72.50;100120.94;5093918;28;20069;-66
2022/08/15 01:58:05;;;;;;;10.00;7.18;;;;;;;23.02;72.72;100125.72;5092640;28;20429;-66
2022/08/15 02:00:37;;;;;;;8.85;6.55;;;;;;;22.98;72.98;100119.91;5094066;28;20419;-56
2022/08/15 02:03:12;;;;;;;10.30;6.90;;;;;;;22.87;73.19;100118.63;5093371;28;20040;-67
2022/08/15 02:05:49;;;;;;;10.23;6.70;;;;;;;22.83;72.19;100117.38;5092162;28;20411;-67
2022/08/15 02:08:24;;;;;;;9.07;6.50;;;;;;;22.84;72.64;100123.53;5093542;28;20044;-55
2022/08/15 02:11:06;;;;;;;10.73;6.97;;;;;;;22.79;72.93;100130.31;5093680;28;20048;-66
2022/08/15 02:13:54;;;;;;;9.50;6.90;;;;;;;22.77;73.98;100124.34;5092236;28;20052;-57
2022/08/15 02:16:27;;;;;;;8.68;6.47;;;;;;;22.70;75.25;100128.84;5093567;28;20051;-66
2022/08/15 02:18:56;;;;;;;8.43;6.72;;;;;;;22.69;76.24;100123.69;5092107;28;20131;-67
2022/08/15 02:21:27;;;;;;;8.82;7.18;;;;;;;22.62;76.08;100121.78;5093440;28;20056;-56
2022/08/15 02:24:07;;;;;;;9.15;6.78;;;;;;;22.63;76.18;100125.28;5093530;28;20103;-67
2022/08/15 02:26:49;;;;;;;9.65;7.18;;;;;;;22.51;75.25;100129.53;5093687;28;20514;-55
2022/08/15 02:29:22;;;;;;;11.00;7.35;;;;;;;22.43;76.92;100125.16;5093403;28;20052;-57
2022/08/15 02:31:53;;;;;;;9.77;7.78;;;;;;;22.41;77.90;100133.38;5092917;28;20060;-65
2022/08/15 02:34:24;;;;;;;11.30;6.97;;;;;;;22.38;76.44;100131.09;5091990;28;20082;-66
2022/08/15 02:37:18;;;;;;;9.60;6.90;;;;;;;22.40;78.09;100129.06;5093294;28;20062;-66
2022/08/15 02:39:53;;;;;;;8.63;7.07;;;;;;;22.29;78.70;100121.50;5093086;28;20526;-66
2022/08/15 02:42:42;;;;;;;10.00;7.60;;;;;;;22.23;78.46;100124.97;5092783;28;20058;-53
2022/08/15 02:45:16;;;;;;;10.75;8.10;;;;;;;22.15;77.76;100128.63;5092925;28;20115;-57
2022/08/15 02:47:45;;;;;;;11.18;8.73;;;;;;;22.20;77.84;100133.41;5093072;28;20048;-56
2022/08/15 02:50:16;;;;;;;11.57;8.80;;;;;;;22.17;77.70;100129.25;5092883;28;20043;-57
2022/08/15 02:52:47;;;;;;;12.70;8.60;;;;;;;22.19;77.38;100123.72;5092713;28;20044;-56
2022/08/15 02:55:19;;;;;;;10.98;8.52;;;;;;;22.12;77.88;100113.75;5092583;28;20495;-56
2022/08/15 02:57:48;;;;;;;10.60;8.82;;;;;;;22.11;76.97;100119.31;5092843;28;20070;-54
2022/08/15 03:00:31;;;;;;;11.77;8.10;;;;;;;22.05;77.16;100120.09;5091608;28;20044;-66
2022/08/15 03:03:02;;;;;;;10.75;8.52;;;;;;;22.02;77.43;100117.78;5092654;28;20401;-56
2022/08/15 03:05:31;;;;;;;11.27;9.20;;;;;;;22.03;77.46;100112.28;5092396;28;20039;-67
2022/08/15 03:08:00;;;;;;;12.30;9.68;;;;;;;22.03;77.10;100114.09;5092440;28;20050;-67
2022/08/15 03:10:29;;;;;;;15.13;9.70;;;;;;;22.04;77.04;100113.91;5091290;28;20052;-54
2022/08/15 03:13:00;;;;;;;12.65;9.40;;;;;;;21.98;77.76;100106.66;5092671;28;20040;-56
2022/08/15 03:15:33;;;;;;;11.15;9.23;;;;;;;21.99;78.13;100123.53;5092173;28;20380;-68
2022/08/15 03:18:02;;;;;;;13.52;10.43;;;;;;;21.99;77.58;100126.22;5092288;28;20044;-67
2022/08/15 03:20:31;;;;;;;11.73;9.60;;;;;;;21.81;78.14;100124.81;5092652;28;20507;-67
2022/08/15 03:23:03;;;;;;;13.30;10.40;;;;;;;21.71;79.16;100124.31;5092845;28;20132;-55
2022/08/15 03:25:32;;;;;;;13.18;10.82;;;;;;;21.68;79.38;100112.16;5092674;28;20044;-55
2022/08/15 03:28:23;;;;;;;14.98;11.57;;;;;;;21.70;80.38;100117.31;5092582;28;20056;-66
2022/08/15 03:30:58;;;;;;;15.60;10.85;;;;;;;21.66;79.68;100111.50;5092456;28;20104;-66
2022/08/15 03:33:27;;;;;;;12.88;10.02;;;;;;;21.64;80.39;100115.38;5092333;28;20564;-57
2022/08/15 03:36:18;;;;;;;14.35;10.20;;;;;;;21.57;80.16;100118.81;5091081;28;20082;-57
2022/08/15 03:38:51;;;;;;;13.73;11.15;;;;;;;21.54;80.32;100119.22;5092286;28;20105;-56
2022/08/15 03:41:23;;;;;;;;;;;;;;;21.54;80.61;100121.88;5092707;28;20048;-57
2022/08/15 03:43:52;;;;;;;11.68;9.70;;;;;;;21.41;81.72;100119.84;5093185;28;19963;-66
2022/08/15 03:46:24;;;;;;;13.98;10.90;;;;;;;21.37;82.85;100107.88;5096447;28;20044;-56
2022/08/15 03:48:54;;;;;;;14.20;10.50;;;;;;;21.33;82.17;100111.13;5096522;28;20502;-66
2022/08/15 03:51:27;;;;;;;14.07;9.98;;;;;;;21.23;83.88;100106.91;5096460;28;20071;-56
2022/08/15 03:54:00;;;;;;;13.63;10.93;;;;;;;21.26;82.43;100111.84;5096246;28;20043;-55
2022/08/15 03:56:31;;;;;;;12.52;10.73;;;;;;;21.19;83.40;100105.63;5096422;28;20048;-65
2022/08/15 03:59:01;;;;;;;12.57;9.85;;;;;;;21.19;84.19;100108.28;5096272;28;20048;-54
2022/08/15 04:01:35;;;;;;;13.10;10.75;;;;;;;21.08;84.47;100100.75;5096281;28;20079;-56
2022/08/15 04:04:10;;;;;;;13.45;10.38;;;;;;;21.05;84.51;100104.63;5095979;28;20052;-66
2022/08/15 04:06:45;;;;;;;13.48;10.50;;;;;;;21.07;85.23;100101.78;5094752;28;20052;-66
2022/08/15 04:09:27;;;;;;;11.80;10.27;;;;;;;20.98;85.32;100093.00;5095793;28;20066;-56
2022/08/15 04:11:58;;;;;;;14.32;10.77;;;;;;;20.98;84.95;100098.34;5096408;28;20051;-66
2022/08/15 04:14:28;;;;;;;14.38;10.55;;;;;;;20.92;86.04;100102.59;5094722;28;20052;-54
2022/08/15 04:17:04;;;;;;;12.40;9.75;;;;;;;20.89;85.47;100096.81;5095942;28;20051;-67
2022/08/15 04:19:45;;;;;;;12.93;10.10;;;;;;;20.88;86.45;100108.50;5096062;28;20036;-55
2022/08/15 04:22:18;;;;;;;13.20;10.82;;;;;;;20.90;86.36;100101.13;5095069;28;20078;-56
2022/08/15 04:25:09;;;;;;;13.55;10.38;;;;;;;20.78;86.88;100103.47;5096191;28;20044;-67
2022/08/15 04:27:47;;;;;;;13.10;10.85;;;;;;;20.81;87.78;100103.06;5095800;28;20048;-56
2022/08/15 04:30:22;;;;;;;14.15;11.30;;;;;;;20.75;87.33;100109.16;5095702;28;20044;-56
2022/08/15 04:32:53;;;;;;;12.20;10.07;;;;;;;20.79;87.54;100118.44;5095768;28;20044;-55
2022/08/15 04:35:26;;;;;;;13.77;10.65;;;;;;;20.76;88.40;100121.50;5095752;28;20083;-56
2022/08/15 04:37:58;;;;;;;12.07;10.00;;;;;;;20.65;87.93;100135.28;5095238;28;20054;-54
2022/08/15 04:40:29;;;;;;;13.65;10.88;;;;;;;20.57;88.58;100133.53;5095697;28;20139;-65
2022/08/15 04:43:19;;;;;;;12.05;9.65;;;;;;;20.63;89.42;100131.97;5094604;28;20078;-64
2022/08/15 04:45:49;;;;;;;13.80;10.05;;;;;;;20.68;89.16;100124.22;5094262;28;20036;-55
2022/08/15 04:48:20;;;;;;;15.55;10.50;;;;;;;20.67;89.65;100119.91;5094285;28;20043;-56
2022/08/15 04:50:51;;;;;;;12.68;10.32;;;;;;;20.66;89.29;100132.44;5094156;28;20061;-56
2022/08/15 04:53:23;;;;;;;12.50;10.77;;;;;;;20.64;89.42;100129.09;5094357;28;20051;-55
2022/08/15 04:55:59;;;;;;;13.30;11.02;;;;;;;20.59;90.95;100128.84;5093521;28;20044;-57
2022/08/15 04:58:34;;;;;;;13.52;11.35;;;;;;;20.64;90.57;100129.09;5094125;28;20090;-63
2022/08/15 05:01:22;;;;;;;15.02;12.27;;;;;;;20.54;90.99;100125.88;5092622;28;20048;-61
2022/08/15 05:04:11;;;;;;;16.70;12.40;;;;;;;20.51;91.92;100126.25;5094076;28;20707;-67
2022/08/15 05:06:53;;;;;;;15.73;11.95;;;;;;;20.54;92.67;100129.38;5094094;28;20044;-57
2022/08/15 05:09:21;;;;;;;15.15;12.85;;;;;;;20.59;92.69;100126.19;5093929;28;20044;-55
2022/08/15 05:11:54;;;;;;;17.20;13.88;;;;;;;20.55;93.20;100132.91;5093669;28;20075;-64
2022/08/15 05:14:36;;;;;;;18.92;15.70;;;;;;;20.56;93.36;100137.19;5093826;28;20127;-54
2022/08/15 05:17:17;;;;;;;17.75;15.90;;;;;;;20.59;93.24;100131.50;5094034;28;20098;-55
2022/08/15 05:19:51;;;;;;;21.38;16.38;;;;;;;20.61;93.23;100140.16;5094139;28;20044;-64
2022/08/15 05:22:20;;;;;;;19.20;15.70;;;;;;;20.65;93.51;100138.78;5095305;28;20105;-55
2022/08/15 05:25:04;;;;;;;19.00;16.40;;;;;;;20.74;93.10;100131.56;5093422;28;20453;-56
2022/08/15 05:27:36;;;;;;;19.25;16.17;;;;;;;20.73;93.65;100136.06;5093892;28;20493;-55
2022/08/15 05:30:12;;;;;;;19.00;16.08;;;;;;;20.75;93.14;100139.38;5092653;28;20587;-65
2022/08/15 05:32:45;;;;;;;18.88;16.42;;;;;;;20.77;92.75;100140.00;5093998;28;20059;-56
2022/08/15 05:35:17;;;;;;;18.52;16.08;;;;;;;20.74;92.92;100139.56;5093587;28;20040;-56
2022/08/15 05:37:46;;;;;;;18.83;15.75;;;;;;;20.75;92.14;100141.22;5093906;28;20067;-67
2022/08/15 05:40:17;;;;;;;18.60;15.90;;;;;;;20.77;91.53;100145.34;5092452;28;20447;-66
2022/08/15 05:42:59;;;;;;;17.10;15.23;;;;;;;20.79;91.70;100150.50;5054157;28;1133664;-56
2022/08/15 05:45:36;;;;;;;16.30;13.98;;;;;;;20.82;91.12;100152.84;5094588;28;20468;-59
2022/08/15 05:48:20;;;;;;;16.65;14.50;;;;;;;20.81;89.20;100148.50;5094371;28;20044;-57
2022/08/15 05:51:12;;;;;;;17.67;12.77;;;;;;;20.85;88.59;100157.00;5094262;28;20060;-66
2022/08/15 05:53:55;;;;;;;15.27;12.10;;;;;;;20.90;88.25;100157.25;5094378;28;20036;-66
2022/08/15 05:56:35;;;;;;;18.40;10.82;;;;;;;20.88;85.21;100162.78;5094674;28;20038;-56
2022/08/15 05:59:06;;;;;;;13.30;9.75;;;;;;;20.92;86.43;100152.56;5094656;28;20066;-57
2022/08/15 06:01:40;;;;;;;11.50;9.47;;;;;;;20.96;86.27;100151.19;5092615;28;20075;-65
2022/08/15 06:04:18;;;;;;;12.90;8.95;;;;;;;20.98;84.45;100146.47;5094416;28;20472;-56
2022/08/15 06:07:03;;;;;;;14.25;8.73;;;;;;;21.06;82.77;100154.38;5093334;28;20507;-65
2022/08/15 06:09:38;;;;;;;12.88;7.57;;;;;;;21.17;82.12;100153.06;5093916;28;20052;-59
2022/08/15 06:12:18;;;;;;;10.48;7.90;;;;;;;21.30;81.11;100159.59;5093723;28;20440;-58
2022/08/15 06:14:56;;;;;;;10.73;7.25;;;;;;;21.38;78.92;100163.03;5094089;28;20097;-60
2022/08/15 06:17:31;;;;;;;10.30;7.22;;;;;;;21.52;79.75;100166.66;5093647;28;20072;-67
2022/08/15 06:20:06;;;;;;;10.15;6.88;;;;;;;21.66;80.24;100170.34;5093613;28;20124;-67
2022/08/15 06:23:06;;;;;;;11.77;6.20;;;;;;;21.74;77.56;100169.41;5093939;28;20487;-57
2022/08/15 06:25:46;;;;;;;10.63;6.10;;;;;;;21.83;77.98;100178.13;5094039;28;20059;-66
2022/08/15 06:28:34;;;;;;;8.98;6.10;;;;;;;21.92;76.71;100180.53;5092131;28;20139;-67
2022/08/15 06:31:31;;;;;;;10.57;5.43;;;;;;;22.08;74.72;100189.31;5093166;28;20101;-56
2022/08/15 06:34:24;;;;;;;10.07;4.82;;;;;;;22.23;73.57;100194.59;5093076;28;20051;-55
2022/08/15 06:37:22;;;;;;;9.20;5.07;;;;;;;22.26;72.47;100187.03;5093089;28;20089;-67
2022/08/15 06:40:06;;;;;;;7.40;4.40;;;;;;;22.34;72.22;100193.25;5093121;28;20119;-68
2022/08/15 06:42:37;;;;;;;7.28;4.00;;;;;;;22.42;72.86;100191.28;5092613;28;20056;-68
2022/08/15 06:45:11;;;;;;;8.70;4.00;;;;;;;22.51;71.84;100191.16;5092886;28;20074;-67
2022/08/15 06:47:41;;;;;;;8.50;4.10;;;;;;;22.59;71.55;100193.69;5092754;28;20098;-68
2022/08/15 06:50:16;;;;;;;7.43;3.92;;;;;;;22.63;70.52;100186.91;5092899;28;20052;-68
2022/08/15 06:52:57;;;;;;;8.65;3.78;;;;;;;22.71;69.09;100186.75;5093986;28;20048;-68
2022/08/15 06:55:39;;;;;;;7.35;3.88;;;;;;;22.79;68.01;100200.00;5093444;28;20522;-55
2022/08/15 06:58:16;;;;;;;6.65;4.05;;;;;;;22.88;68.13;100189.97;5092660;28;20044;-54
2022/08/15 07:01:17;;;;;;;6.85;3.85;;;;;;;22.90;66.24;100192.44;5092664;28;20047;-52
2022/08/15 07:03:54;;;;;;;19.42;4.03;;;;;;;22.94;67.27;100191.03;5092724;28;20093;-67
2022/08/15 07:06:29;;;;;;;7.90;3.83;;;;;;;23.01;67.34;100196.44;5092755;28;20048;-67
2022/08/15 07:09:08;;;;;;;9.10;3.75;;;;;;;23.02;66.67;100190.06;5092868;28;20096;-67
2022/08/15 07:11:47;;;;;;;8.45;3.40;;;;;;;23.10;65.57;100182.66;5091344;28;20525;-52
2022/08/15 07:14:30;;;;;;;6.75;3.88;;;;;;;23.16;65.22;100194.47;5092469;28;20052;-67
2022/08/15 07:17:15;;;;;;;6.60;3.47;;;;;;;23.28;65.68;100192.88;5092314;28;20604;-54
2022/08/15 07:19:43;;;;;;;7.53;3.30;;;;;;;23.33;65.23;100199.50;5092360;28;20044;-55
2022/08/15 07:22:24;;;;;;;7.68;3.55;;;;;;;23.38;64.21;100211.31;5091017;28;20465;-65
2022/08/15 07:25:10;;;;;;;7.00;3.25;;;;;;;23.36;65.40;100209.88;5092380;28;20518;-63
2022/08/15 07:27:40;;;;;;;6.43;3.38;;;;;;;23.39;64.86;100212.94;5092330;28;20047;-54
2022/08/15 07:30:18;;;;;;;9.70;3.50;;;;;;;23.45;65.05;100214.84;5092084;28;20130;-53
2022/08/15 07:32:58;;;;;;;10.43;3.33;;;;;;;23.55;66.80;100217.16;5092210;28;20059;-52
2022/08/15 07:35:30;;;;;;;7.85;3.08;;;;;;;23.70;66.12;100206.25;5092268;28;20105;-51
2022/08/15 07:38:01;;;;;;;5.28;3.20;;;;;;;23.71;66.00;100202.56;5092199;28;20033;-64
2022/08/15 07:40:51;;;;;;;6.07;3.28;;;;;;;23.78;64.89;100200.72;5092043;28;20127;-53
2022/08/15 07:43:31;;;;;;;9.50;3.75;;;;;;;23.86;64.75;100206.91;5091945;28;20055;-54
2022/08/15 07:46:08;;;;;;;5.70;3.50;;;;;;;23.91;64.17;100209.84;5092295;28;20048;-52
2022/08/15 07:48:58;;;;;;;7.53;3.60;;;;;;;23.95;63.93;100211.91;5092499;28;20062;-50
2022/08/15 07:51:31;;;;;;;7.15;3.70;;;;;;;23.97;63.08;100217.13;5090656;28;20040;-52
2022/08/15 07:54:04;;;;;;;7.63;3.40;;;;;;;24.10;64.14;100211.75;5090913;28;20056;-65
2022/08/15 07:56:36;;;;;;;5.97;3.72;;;;;;;24.24;63.06;100215.28;5092172;28;20127;-51
2022/08/15 07:59:28;;;;;;;6.97;3.50;;;;;;;24.33;61.35;100226.66;5090631;28;20044;-51
2022/08/15 08:02:24;;;;;;;7.57;3.60;;;;;;;24.41;62.10;100210.31;5091780;28;20056;-52
2022/08/15 08:05:12;;;;;;;8.02;3.63;;;;;;;24.48;60.42;100199.59;5091619;28;20043;-52
2022/08/15 08:07:54;;;;;;;6.65;3.22;;;;;;;24.60;60.61;100207.84;5091775;28;20052;-65
2022/08/15 08:10:29;;;;;;;5.90;3.65;;;;;;;24.56;59.59;100217.38;5091793;28;20052;-65
2022/08/15 08:13:25;;;;;;;9.18;3.60;;;;;;;24.59;59.67;100219.63;5090532;28;20147;-53
2022/08/15 08:16:16;;;;;;;9.63;3.90;;;;;;;24.74;61.24;100209.50;5091823;28;20040;-65
2022/08/15 08:19:03;;;;;;;;;;;;;;;24.76;58.11;100220.06;5092333;28;20044;-66
2022/08/15 08:21:44;;;;;;;6.65;4.25;;;;;;;24.72;58.88;100216.97;5092252;28;19965;-53
2022/08/15 08:24:22;;;;;;;8.98;4.32;;;;;;;24.84;60.57;100230.59;5091847;28;20674;-51
2022/08/15 08:27:02;;;;;;;12.32;4.57;;;;;;;24.74;58.28;100225.63;5091695;28;20055;-51
2022/08/15 08:29:43;;;;;;;8.48;4.10;;;;;;;24.64;57.84;100230.63;5092352;28;20105;-51
2022/08/15 08:32:27;;;;;;;8.45;4.50;;;;;;;24.60;58.06;100232.03;5095419;28;20036;-49
2022/08/15 08:35:05;;;;;;;9.60;3.92;;;;;;;24.67;58.77;100238.25;5095388;28;20098;-49
2022/08/15 08:37:40;;;;;;;8.38;3.83;;;;;;;24.67;58.32;100235.56;5095428;28;21170;-48
2022/08/15 08:43:23;;;;;;;7.20;3.70;;;;;;;24.98;57.81;100234.09;5094708;28;20518;-49
2022/08/15 08:46:04;;;;;;;6.70;3.78;;;;;;;25.12;58.93;100246.47;5095260;28;20571;-49
2022/08/15 08:48:47;;;;;;;8.77;4.28;;;;;;;25.20;56.87;100241.91;5093966;28;20055;-47
2022/08/15 08:51:30;;;;;;;10.23;4.13;;;;;;;25.40;58.17;100245.41;5094716;28;20062;-50
2022/08/15 08:54:06;;;;;;;7.40;4.10;;;;;;;25.50;57.02;100244.09;5094548;28;20058;-50
2022/08/15 08:56:40;;;;;;;11.48;4.57;;;;;;;25.62;56.57;100248.63;5094718;28;20048;-53
2022/08/15 08:59:17;;;;;;;;;;;;;;;25.78;57.25;100241.94;5095101;28;20040;-51
2022/08/15 09:01:50;;;;;;;10.82;4.70;;;;;;;25.88;56.22;100240.63;5094407;28;19926;-49
2022/08/15 09:04:24;;;;;;;8.15;4.65;;;;;;;25.98;56.27;100233.72;5094282;28;20040;-53
2022/08/15 09:06:55;;;;;;;7.70;4.03;;;;;;;26.06;56.31;100246.13;5094428;28;20123;-50
2022/08/15 09:09:31;;;;;;;10.88;5.30;;;;;;;26.13;58.12;100248.78;5094903;28;20372;-50
2022/08/15 09:12:04;;;;;;;9.98;5.45;;;;;;;26.05;54.97;100247.19;5094561;28;20054;-50
2022/08/15 09:14:41;;;;;;;15.15;5.35;;;;;;;26.12;56.11;100241.75;5093547;28;20052;-50
2022/08/15 09:17:34;;;;;;;9.43;5.20;;;;;;;26.20;56.56;100244.19;5094549;28;20499;-51
2022/08/15 09:20:08;;;;;;;10.65;6.00;;;;;;;26.22;55.97;100241.25;5094852;28;20052;-53
2022/08/15 09:22:46;;;;;;;9.88;5.82;;;;;;;26.33;54.48;100237.88;5094630;28;20097;-54
2022/08/15 09:25:15;;;;;;;7.90;5.00;;;;;;;26.38;56.12;100234.53;5094223;28;20098;-52
2022/08/15 09:27:51;;;;;;;8.88;5.53;;;;;;;26.28;54.61;100235.00;5094544;28;20395;-53
2022/08/15 09:30:26;;;;;;;9.20;4.95;;;;;;;26.21;55.16;100236.94;5093691;28;20109;-63
2022/08/15 09:33:34;;;;;;;8.65;5.30;;;;;;;26.17;55.48;100238.41;5093694;28;20052;-62
2022/08/15 09:36:33;;;;;;;9.02;4.75;;;;;;;26.13;55.41;100240.72;5093583;28;20052;-63
2022/08/15 09:39:17;;;;;;;10.75;5.07;;;;;;;26.11;54.90;100235.53;5093437;28;20040;-63
2022/08/15 09:41:59;;;;;;;12.93;5.32;;;;;;;26.10;54.90;100238.47;5092643;28;20146;-55
2022/08/15 09:44:54;;;;;;;9.90;4.32;;;;;;;26.11;55.68;100240.94;5093957;28;20097;-53
2022/08/15 09:48:00;;;;;;;8.55;4.32;;;;;;;26.15;55.72;100244.00;5092552;28;20056;-53
2022/08/15 09:50:44;;;;;;;7.55;4.53;;;;;;;26.04;54.88;100250.94;5077241;28;20067;-51
2022/08/15 09:53:28;;;;;;;7.07;4.68;;;;;;;26.01;56.06;100242.41;5093949;28;20066;-63
2022/08/15 09:56:20;;;;;;;9.80;3.90;;;;;;;26.09;56.25;100239.50;5093960;28;20040;-63
2022/08/15 09:59:05;;;;;;;9.10;4.28;;;;;;;25.88;55.71;100246.84;5093860;28;20135;-53
2022/08/15 10:01:45;;;;;;;8.48;4.40;;;;;;;26.00;56.08;100244.31;5093888;28;20066;-52
2022/08/15 10:04:41;;;;;;;12.43;5.45;;;;;;;26.03;56.82;100243.88;5093265;28;20051;-62
2022/08/15 10:07:32;;;;;;;21.27;5.60;;;;;;;26.08;57.09;100245.91;5091781;28;20411;-62
2022/08/15 10:10:19;;;;;;;14.95;5.63;;;;;;;26.07;57.96;100255.88;5088475;28;20060;-51
2022/08/15 10:13:28;;;;;;;10.27;5.75;;;;;;;26.17;57.99;100251.91;5092387;28;20476;-50
2022/08/15 10:16:01;;;;;;;29.25;7.93;;;;;;;26.07;59.63;100253.19;5093719;28;20048;-53
2022/08/15 10:19:04;;;;;;;22.20;6.00;;;;;;;26.06;60.22;100253.41;5092275;28;20048;-55
2022/08/15 10:21:36;;;;;;;9.52;6.43;;;;;;;25.76;58.99;100260.16;5093598;28;20052;-55
2022/08/15 10:24:25;;;;;;;9.48;6.00;;;;;;;25.77;60.35;100266.38;5093453;28;20040;-64
2022/08/15 10:27:22;;;;;;;9.27;5.78;;;;;;;25.83;60.90;100268.19;5093196;28;20051;-53
2022/08/15 10:30:10;;;;;;;12.85;6.80;;;;;;;25.89;60.73;100266.50;5074034;28;20074;-53
2022/08/15 10:32:59;;;;;;;13.73;6.32;;;;;;;25.88;63.67;100270.25;5093069;28;20048;-63
2022/08/15 10:35:45;;;;;;;10.18;6.07;;;;;;;25.93;67.63;100265.03;5093212;28;20052;-53
2022/08/15 10:38:22;;;;;;;12.63;6.70;;;;;;;26.05;64.99;100267.91;5092967;28;20051;-63
2022/08/15 10:41:17;;;;;;;10.38;6.40;;;;;;;25.99;64.72;100277.66;5092820;28;20498;-52
2022/08/15 10:43:58;;;;;;;11.00;6.70;;;;;;;25.97;62.69;100271.66;5092591;28;20117;-53
2022/08/15 10:46:52;;;;;;;15.15;6.80;;;;;;;26.09;62.05;100275.34;5093007;28;20527;-53
2022/08/15 10:49:36;;;;;;;12.82;6.35;;;;;;;26.26;62.36;100275.66;5092573;28;20040;-57
2022/08/15 10:52:26;;;;;;;11.88;6.50;;;;;;;26.55;61.62;100277.94;5092057;28;20079;-52
2022/08/15 10:55:18;;;;;;;12.70;6.63;;;;;;;26.80;60.05;100276.09;5092235;28;20040;-52
2022/08/15 10:58:14;;;;;;;10.85;6.55;;;;;;;26.96;58.91;100280.09;5092065;28;20044;-52
2022/08/15 11:00:53;;;;;;;11.90;6.57;;;;;;;27.21;59.10;100275.72;5092234;28;20406;-62
2022/08/15 11:03:29;;;;;;;9.63;6.70;;;;;;;27.61;57.44;100276.13;5092424;28;20467;-54
2022/08/15 11:06:21;;;;;;;14.00;7.30;;;;;;;27.90;57.59;100280.94;5091300;28;20098;-63
2022/08/15 11:08:58;;;;;;;10.43;6.93;;;;;;;28.00;55.27;100286.66;5092695;28;20044;-62
2022/08/15 11:11:27;;;;;;;;;;;;;;;28.09;55.48;100279.88;5092980;28;20441;-53
2022/08/15 11:14:00;;;;;;;10.80;6.80;;;;;;;28.13;55.34;100289.16;5092471;28;19920;-63
2022/08/15 11:16:35;;;;;;;11.05;6.53;;;;;;;28.25;55.30;100278.41;5092675;28;20048;-63
2022/08/15 11:19:18;;;;;;;11.18;6.13;;;;;;;28.16;57.13;100291.41;5092292;28;20372;-62
2022/08/15 11:22:20;;;;;;;18.98;8.30;;;;;;;27.93;55.23;100292.09;5090981;28;20044;-54
2022/08/15 11:24:59;;;;;;;15.27;7.35;;;;;;;28.09;54.74;100292.56;5091496;28;20364;-62
2022/08/15 11:27:30;;;;;;;10.50;7.22;;;;;;;28.01;54.87;100301.00;5092438;28;20071;-63
2022/08/15 11:30:03;;;;;;;11.38;6.45;;;;;;;27.79;55.45;100304.97;5092174;28;20059;-63
2022/08/15 11:32:52;;;;;;;11.07;6.07;;;;;;;27.92;55.46;100306.69;5092197;28;20143;-53
2022/08/15 11:35:24;;;;;;;;;;;;;;;28.02;54.88;100303.47;5092795;28;20048;-51
2022/08/15 11:37:56;;;;;;;9.80;6.40;;;;;;;27.99;55.87;100310.13;5091897;28;19963;-54
2022/08/15 11:40:29;;;;;;;14.00;7.07;;;;;;;27.97;55.99;100301.41;5091777;28;20079;-53
2022/08/15 11:43:00;;;;;;;48.70;12.33;;;;;;;27.86;57.61;100306.78;5090602;28;20052;-62
2022/08/15 11:45:41;;;;;;;32.85;11.00;;;;;;;27.97;56.83;100312.22;5090631;28;20055;-55
2022/08/15 11:48:26;;;;;;;12.25;7.53;;;;;;;27.97;56.63;100320.31;5091902;28;20069;-54
2022/08/15 11:51:07;;;;;;;11.88;7.43;;;;;;;27.81;56.59;100310.97;5091605;28;20040;-63
2022/08/15 11:53:41;;;;;;;32.35;10.23;;;;;;;27.82;57.65;100318.00;5091954;28;20051;-52
2022/08/15 11:56:10;;;;;;;14.25;8.02;;;;;;;27.76;57.32;100320.78;5091813;28;20044;-54
2022/08/15 11:58:50;;;;;;;12.45;7.75;;;;;;;27.62;58.42;100317.44;5092354;28;20097;-54
2022/08/15 12:01:32;;;;;;;11.30;7.22;;;;;;;27.52;58.93;100312.56;5092107;28;20040;-62
2022/08/15 12:04:07;;;;;;;14.20;7.60;;;;;;;27.79;58.62;100315.78;5092289;28;20048;-54
2022/08/15 12:06:56;;;;;;;12.05;7.05;;;;;;;27.83;57.08;100322.38;5096007;28;20048;-63
2022/08/15 12:09:28;;;;;;;9.57;7.03;;;;;;;27.94;56.97;100319.97;5095574;28;20076;-52
2022/08/15 12:12:40;;;;;;;10.48;7.22;;;;;;;27.87;56.00;100324.63;5095599;28;20044;-53
2022/08/15 12:15:14;;;;;;;11.02;6.15;;;;;;;27.95;57.28;100317.03;5095207;28;20437;-63
2022/08/15 12:18:04;;;;;;;10.50;6.97;;;;;;;27.89;56.34;100317.94;5095708;28;20510;-63